sensor_id;sensor_type;location;lat;lon;timestamp;P1;durP1;ratioP1;P2;durP2;ratioP2
70165;SDS011;57541;47.408;18.822;2022-11-03T00:00:09;21.20;;;12.00;;
70165;SDS011;57541;47.408;18.822;2022-11-03T00:00:43;20.08;;;10.93;;
70165;SDS011;57541;47.408;18.822;2022-11-03T00:01:14;19.37;;;11.93;;
70165;SDS011;57541;47.408;18.822;2022-11-03T00:01:47;20.63;;;11.48;;
70165;SDS011;57541;47.408;18.822;2022-11-03T00:02:20;20.77;;;12.10;;
70165;SDS011;57541;47.408;18.822;2022-11-03T00:02:52;20.67;;;11.77;;
70165;SDS011;57541;47.408;18.822;2022-11-03T00:03:23;22.30;;;11.82;;
70165;SDS011;57541;47.408;18.822;2022-11-03T00:03:55;20.50;;;11.95;;
70165;SDS011;57541;47.408;18.822;2022-11-03T00:04:27;21.08;;;12.48;;
70165;SDS011;57541;47.408;18.822;2022-11-03T00:04:58;19.08;;;12.15;;
70165;SDS011;57541;47.408;18.822;2022-11-03T00:05:50;19.42;;;11.45;;
70165;SDS011;57541;47.408;18.822;2022-11-03T00:06:36;20.98;;;11.65;;
70165;SDS011;57541;47.408;18.822;2022-11-03T00:07:09;21.92;;;11.98;;
70165;SDS011;57541;47.408;18.822;2022-11-03T00:07:40;19.80;;;11.48;;
70165;SDS011;57541;47.408;18.822;2022-11-03T00:08:12;22.88;;;11.65;;
70165;SDS011;57541;47.408;18.822;2022-11-03T00:08:43;22.17;;;11.68;;
70165;SDS011;57541;47.408;18.822;2022-11-03T00:09:15;21.90;;;12.27;;
70165;SDS011;57541;47.408;18.822;2022-11-03T00:09:48;21.60;;;12.07;;
70165;SDS011;57541;47.408;18.822;2022-11-03T00:10:19;22.50;;;12.93;;
70165;SDS011;57541;47.408;18.822;2022-11-03T00:10:51;22.45;;;11.93;;
70165;SDS011;57541;47.408;18.822;2022-11-03T00:11:23;23.30;;;13.20;;
70165;SDS011;57541;47.408;18.822;2022-11-03T00:11:54;22.88;;;13.20;;
70165;SDS011;57541;47.408;18.822;2022-11-03T00:12:26;22.02;;;12.40;;
70165;SDS011;57541;47.408;18.822;2022-11-03T00:12:57;20.05;;;12.00;;
70165;SDS011;57541;47.408;18.822;2022-11-03T00:13:29;27.40;;;12.63;;
70165;SDS011;57541;47.408;18.822;2022-11-03T00:14:00;23.90;;;12.23;;
70165;SDS011;57541;47.408;18.822;2022-11-03T00:14:33;24.90;;;12.35;;
70165;SDS011;57541;47.408;18.822;2022-11-03T00:15:04;23.73;;;12.45;;
70165;SDS011;57541;47.408;18.822;2022-11-03T00:15:36;24.10;;;11.82;;
70165;SDS011;57541;47.408;18.822;2022-11-03T00:16:08;22.65;;;12.15;;
70165;SDS011;57541;47.408;18.822;2022-11-03T00:16:41;21.85;;;12.30;;
70165;SDS011;57541;47.408;18.822;2022-11-03T00:17:13;22.08;;;11.70;;
70165;SDS011;57541;47.408;18.822;2022-11-03T00:17:45;21.73;;;12.07;;
70165;SDS011;57541;47.408;18.822;2022-11-03T00:18:17;21.35;;;12.30;;
70165;SDS011;57541;47.408;18.822;2022-11-03T00:18:48;22.27;;;12.40;;
70165;SDS011;57541;47.408;18.822;2022-11-03T00:19:21;23.20;;;12.07;;
70165;SDS011;57541;47.408;18.822;2022-11-03T00:19:53;24.02;;;11.80;;
70165;SDS011;57541;47.408;18.822;2022-11-03T00:20:24;24.75;;;11.85;;
70165;SDS011;57541;47.408;18.822;2022-11-03T00:20:56;23.42;;;12.05;;
70165;SDS011;57541;47.408;18.822;2022-11-03T00:21:36;20.23;;;11.40;;
70165;SDS011;57541;47.408;18.822;2022-11-03T00:22:08;24.02;;;12.57;;
70165;SDS011;57541;47.408;18.822;2022-11-03T00:22:39;21.17;;;12.85;;
70165;SDS011;57541;47.408;18.822;2022-11-03T00:23:11;24.63;;;12.70;;
70165;SDS011;57541;47.408;18.822;2022-11-03T00:23:43;20.48;;;12.25;;
70165;SDS011;57541;47.408;18.822;2022-11-03T00:24:15;22.15;;;12.55;;
70165;SDS011;57541;47.408;18.822;2022-11-03T00:24:46;22.10;;;12.57;;
70165;SDS011;57541;47.408;18.822;2022-11-03T00:25:18;21.85;;;12.18;;
70165;SDS011;57541;47.408;18.822;2022-11-03T00:25:49;24.02;;;12.75;;
70165;SDS011;57541;47.408;18.822;2022-11-03T00:26:22;21.80;;;12.68;;
70165;SDS011;57541;47.408;18.822;2022-11-03T00:26:55;22.67;;;12.57;;
70165;SDS011;57541;47.408;18.822;2022-11-03T00:27:26;22.77;;;13.63;;
70165;SDS011;57541;47.408;18.822;2022-11-03T00:27:58;24.38;;;12.65;;
70165;SDS011;57541;47.408;18.822;2022-11-03T00:28:30;24.42;;;13.95;;
70165;SDS011;57541;47.408;18.822;2022-11-03T00:29:07;23.95;;;13.05;;
70165;SDS011;57541;47.408;18.822;2022-11-03T00:29:42;24.05;;;13.38;;
70165;SDS011;57541;47.408;18.822;2022-11-03T00:30:14;22.45;;;12.77;;
70165;SDS011;57541;47.408;18.822;2022-11-03T00:30:45;23.98;;;12.68;;
70165;SDS011;57541;47.408;18.822;2022-11-03T00:31:24;24.02;;;13.10;;
70165;SDS011;57541;47.408;18.822;2022-11-03T00:31:57;22.77;;;12.80;;
70165;SDS011;57541;47.408;18.822;2022-11-03T00:32:28;21.80;;;12.27;;
70165;SDS011;57541;47.408;18.822;2022-11-03T00:33:00;23.23;;;12.68;;
70165;SDS011;57541;47.408;18.822;2022-11-03T00:33:31;23.63;;;12.85;;
70165;SDS011;57541;47.408;18.822;2022-11-03T00:34:04;24.05;;;12.70;;
70165;SDS011;57541;47.408;18.822;2022-11-03T00:34:37;22.23;;;12.65;;
70165;SDS011;57541;47.408;18.822;2022-11-03T00:35:08;23.08;;;13.48;;
70165;SDS011;57541;47.408;18.822;2022-11-03T00:35:40;22.88;;;13.13;;
70165;SDS011;57541;47.408;18.822;2022-11-03T00:36:12;23.27;;;13.00;;
70165;SDS011;57541;47.408;18.822;2022-11-03T00:36:45;21.80;;;12.77;;
70165;SDS011;57541;47.408;18.822;2022-11-03T00:37:17;22.05;;;13.48;;
70165;SDS011;57541;47.408;18.822;2022-11-03T00:37:48;21.33;;;12.07;;
70165;SDS011;57541;47.408;18.822;2022-11-03T00:38:20;21.17;;;11.90;;
70165;SDS011;57541;47.408;18.822;2022-11-03T00:38:51;21.92;;;12.57;;
70165;SDS011;57541;47.408;18.822;2022-11-03T00:39:23;23.70;;;11.83;;
70165;SDS011;57541;47.408;18.822;2022-11-03T00:39:55;20.65;;;11.57;;
70165;SDS011;57541;47.408;18.822;2022-11-03T00:40:26;22.70;;;12.57;;
70165;SDS011;57541;47.408;18.822;2022-11-03T00:40:58;20.27;;;11.55;;
70165;SDS011;57541;47.408;18.822;2022-11-03T00:41:31;20.13;;;11.95;;
70165;SDS011;57541;47.408;18.822;2022-11-03T00:42:03;20.77;;;11.68;;
70165;SDS011;57541;47.408;18.822;2022-11-03T00:42:34;19.90;;;11.40;;
70165;SDS011;57541;47.408;18.822;2022-11-03T00:43:07;21.70;;;11.82;;
70165;SDS011;57541;47.408;18.822;2022-11-03T00:43:39;21.63;;;11.98;;
70165;SDS011;57541;47.408;18.822;2022-11-03T00:44:11;20.95;;;11.68;;
70165;SDS011;57541;47.408;18.822;2022-11-03T00:44:43;21.05;;;12.07;;
70165;SDS011;57541;47.408;18.822;2022-11-03T00:45:15;20.63;;;11.85;;
70165;SDS011;57541;47.408;18.822;2022-11-03T00:45:46;21.25;;;12.07;;
70165;SDS011;57541;47.408;18.822;2022-11-03T00:46:18;20.98;;;11.55;;
70165;SDS011;57541;47.408;18.822;2022-11-03T00:46:51;20.70;;;11.98;;
70165;SDS011;57541;47.408;18.822;2022-11-03T00:47:23;20.75;;;12.23;;
70165;SDS011;57541;47.408;18.822;2022-11-03T00:47:54;20.38;;;12.20;;
70165;SDS011;57541;47.408;18.822;2022-11-03T00:48:44;22.45;;;12.48;;
70165;SDS011;57541;47.408;18.822;2022-11-03T00:49:16;21.92;;;12.35;;
70165;SDS011;57541;47.408;18.822;2022-11-03T00:49:48;23.38;;;12.38;;
70165;SDS011;57541;47.408;18.822;2022-11-03T00:50:19;23.35;;;13.00;;
70165;SDS011;57541;47.408;18.822;2022-11-03T00:50:51;21.73;;;12.55;;
70165;SDS011;57541;47.408;18.822;2022-11-03T00:51:23;22.10;;;13.60;;
70165;SDS011;57541;47.408;18.822;2022-11-03T00:51:56;22.10;;;13.23;;
70165;SDS011;57541;47.408;18.822;2022-11-03T00:52:28;22.85;;;13.23;;
70165;SDS011;57541;47.408;18.822;2022-11-03T00:52:59;23.42;;;12.75;;
70165;SDS011;57541;47.408;18.822;2022-11-03T00:53:31;22.42;;;12.93;;
70165;SDS011;57541;47.408;18.822;2022-11-03T00:54:05;22.33;;;13.02;;
70165;SDS011;57541;47.408;18.822;2022-11-03T00:54:37;23.52;;;12.63;;
70165;SDS011;57541;47.408;18.822;2022-11-03T00:55:09;22.35;;;12.32;;
70165;SDS011;57541;47.408;18.822;2022-11-03T00:55:40;24.75;;;13.07;;
70165;SDS011;57541;47.408;18.822;2022-11-03T00:56:13;24.55;;;13.90;;
70165;SDS011;57541;47.408;18.822;2022-11-03T00:56:49;22.08;;;13.05;;
70165;SDS011;57541;47.408;18.822;2022-11-03T00:57:21;25.05;;;13.40;;
70165;SDS011;57541;47.408;18.822;2022-11-03T00:57:52;23.40;;;13.50;;
70165;SDS011;57541;47.408;18.822;2022-11-03T00:58:24;25.27;;;13.35;;
70165;SDS011;57541;47.408;18.822;2022-11-03T00:58:56;24.77;;;13.55;;
70165;SDS011;57541;47.408;18.822;2022-11-03T00:59:29;24.15;;;13.30;;
70165;SDS011;57541;47.408;18.822;2022-11-03T01:00:00;22.27;;;12.75;;
70165;SDS011;57541;47.408;18.822;2022-11-03T01:00:32;25.50;;;14.07;;
70165;SDS011;57541;47.408;18.822;2022-11-03T01:01:04;24.43;;;13.63;;
70165;SDS011;57541;47.408;18.822;2022-11-03T01:01:44;25.42;;;13.13;;
70165;SDS011;57541;47.408;18.822;2022-11-03T01:02:18;22.92;;;13.38;;
70165;SDS011;57541;47.408;18.822;2022-11-03T01:02:49;25.17;;;13.48;;
70165;SDS011;57541;47.408;18.822;2022-11-03T01:03:21;25.35;;;13.80;;
70165;SDS011;57541;47.408;18.822;2022-11-03T01:03:53;25.35;;;13.80;;
70165;SDS011;57541;47.408;18.822;2022-11-03T01:04:45;23.17;;;12.85;;
70165;SDS011;57541;47.408;18.822;2022-11-03T01:05:39;25.17;;;12.80;;
70165;SDS011;57541;47.408;18.822;2022-11-03T01:06:30;26.60;;;12.63;;
70165;SDS011;57541;47.408;18.822;2022-11-03T01:07:21;23.23;;;12.23;;
70165;SDS011;57541;47.408;18.822;2022-11-03T01:07:53;24.00;;;12.93;;
70165;SDS011;57541;47.408;18.822;2022-11-03T01:08:30;25.20;;;13.65;;
70165;SDS011;57541;47.408;18.822;2022-11-03T01:09:03;25.00;;;13.88;;
70165;SDS011;57541;47.408;18.822;2022-11-03T01:09:35;25.42;;;13.13;;
70165;SDS011;57541;47.408;18.822;2022-11-03T01:10:08;26.17;;;14.02;;
70165;SDS011;57541;47.408;18.822;2022-11-03T01:10:41;28.73;;;13.82;;
70165;SDS011;57541;47.408;18.822;2022-11-03T01:11:33;26.33;;;14.05;;
70165;SDS011;57541;47.408;18.822;2022-11-03T01:12:17;28.40;;;13.52;;
70165;SDS011;57541;47.408;18.822;2022-11-03T01:12:49;24.60;;;13.32;;
70165;SDS011;57541;47.408;18.822;2022-11-03T01:13:21;24.25;;;13.57;;
70165;SDS011;57541;47.408;18.822;2022-11-03T01:13:52;27.38;;;15.30;;
70165;SDS011;57541;47.408;18.822;2022-11-03T01:14:25;25.08;;;14.05;;
70165;SDS011;57541;47.408;18.822;2022-11-03T01:14:59;26.15;;;13.82;;
70165;SDS011;57541;47.408;18.822;2022-11-03T01:15:31;27.60;;;14.35;;
70165;SDS011;57541;47.408;18.822;2022-11-03T01:16:03;27.52;;;14.70;;
70165;SDS011;57541;47.408;18.822;2022-11-03T01:16:35;28.20;;;14.68;;
70165;SDS011;57541;47.408;18.822;2022-11-03T01:17:07;27.05;;;13.70;;
70165;SDS011;57541;47.408;18.822;2022-11-03T01:17:40;26.77;;;13.95;;
70165;SDS011;57541;47.408;18.822;2022-11-03T01:18:12;25.35;;;14.57;;
70165;SDS011;57541;47.408;18.822;2022-11-03T01:18:44;23.75;;;13.38;;
70165;SDS011;57541;47.408;18.822;2022-11-03T01:19:15;25.85;;;14.25;;
70165;SDS011;57541;47.408;18.822;2022-11-03T01:19:47;25.52;;;13.80;;
70165;SDS011;57541;47.408;18.822;2022-11-03T01:20:19;25.98;;;13.93;;
70165;SDS011;57541;47.408;18.822;2022-11-03T01:20:56;27.98;;;15.27;;
70165;SDS011;57541;47.408;18.822;2022-11-03T01:21:28;25.90;;;14.27;;
70165;SDS011;57541;47.408;18.822;2022-11-03T01:22:00;26.67;;;14.45;;
70165;SDS011;57541;47.408;18.822;2022-11-03T01:22:37;25.02;;;13.90;;
70165;SDS011;57541;47.408;18.822;2022-11-03T01:23:09;23.80;;;13.50;;
70165;SDS011;57541;47.408;18.822;2022-11-03T01:23:40;26.33;;;14.23;;
70165;SDS011;57541;47.408;18.822;2022-11-03T01:24:13;26.58;;;14.60;;
70165;SDS011;57541;47.408;18.822;2022-11-03T01:24:44;25.13;;;14.30;;
70165;SDS011;57541;47.408;18.822;2022-11-03T01:25:17;27.52;;;14.60;;
70165;SDS011;57541;47.408;18.822;2022-11-03T01:25:49;27.88;;;14.30;;
70165;SDS011;57541;47.408;18.822;2022-11-03T01:26:20;24.33;;;14.00;;
70165;SDS011;57541;47.408;18.822;2022-11-03T01:26:52;23.83;;;13.52;;
70165;SDS011;57541;47.408;18.822;2022-11-03T01:27:24;26.17;;;14.43;;
70165;SDS011;57541;47.408;18.822;2022-11-03T01:27:55;26.15;;;13.73;;
70165;SDS011;57541;47.408;18.822;2022-11-03T01:28:27;26.48;;;13.70;;
70165;SDS011;57541;47.408;18.822;2022-11-03T01:28:59;24.63;;;14.18;;
70165;SDS011;57541;47.408;18.822;2022-11-03T01:29:30;27.90;;;14.07;;
70165;SDS011;57541;47.408;18.822;2022-11-03T01:30:02;27.13;;;14.70;;
70165;SDS011;57541;47.408;18.822;2022-11-03T01:30:34;24.80;;;13.50;;
70165;SDS011;57541;47.408;18.822;2022-11-03T01:31:09;25.40;;;14.23;;
70165;SDS011;57541;47.408;18.822;2022-11-03T01:31:51;26.30;;;13.07;;
70165;SDS011;57541;47.408;18.822;2022-11-03T01:32:23;26.20;;;15.00;;
70165;SDS011;57541;47.408;18.822;2022-11-03T01:32:54;24.77;;;13.73;;
70165;SDS011;57541;47.408;18.822;2022-11-03T01:33:26;24.88;;;13.75;;
70165;SDS011;57541;47.408;18.822;2022-11-03T01:33:57;26.33;;;14.18;;
70165;SDS011;57541;47.408;18.822;2022-11-03T01:34:29;26.90;;;14.07;;
70165;SDS011;57541;47.408;18.822;2022-11-03T01:35:01;24.13;;;13.20;;
70165;SDS011;57541;47.408;18.822;2022-11-03T01:35:33;25.15;;;13.88;;
70165;SDS011;57541;47.408;18.822;2022-11-03T01:36:04;27.60;;;13.82;;
70165;SDS011;57541;47.408;18.822;2022-11-03T01:36:36;26.25;;;13.88;;
70165;SDS011;57541;47.408;18.822;2022-11-03T01:37:08;22.85;;;13.65;;
70165;SDS011;57541;47.408;18.822;2022-11-03T01:37:39;25.25;;;14.20;;
70165;SDS011;57541;47.408;18.822;2022-11-03T01:38:11;23.38;;;13.20;;
70165;SDS011;57541;47.408;18.822;2022-11-03T01:38:42;24.05;;;13.93;;
70165;SDS011;57541;47.408;18.822;2022-11-03T01:39:16;27.23;;;14.82;;
70165;SDS011;57541;47.408;18.822;2022-11-03T01:39:49;26.35;;;14.93;;
70165;SDS011;57541;47.408;18.822;2022-11-03T01:40:21;25.33;;;14.90;;
70165;SDS011;57541;47.408;18.822;2022-11-03T01:40:53;25.35;;;14.18;;
70165;SDS011;57541;47.408;18.822;2022-11-03T01:41:25;25.48;;;13.65;;
70165;SDS011;57541;47.408;18.822;2022-11-03T01:41:58;28.40;;;14.82;;
70165;SDS011;57541;47.408;18.822;2022-11-03T01:42:30;25.35;;;14.18;;
70165;SDS011;57541;47.408;18.822;2022-11-03T01:43:17;23.70;;;12.57;;
70165;SDS011;57541;47.408;18.822;2022-11-03T01:44:18;25.40;;;13.48;;
70165;SDS011;57541;47.408;18.822;2022-11-03T01:44:50;25.63;;;13.95;;
70165;SDS011;57541;47.408;18.822;2022-11-03T01:45:22;27.15;;;13.93;;
70165;SDS011;57541;47.408;18.822;2022-11-03T01:46:31;25.05;;;13.85;;
70165;SDS011;57541;47.408;18.822;2022-11-03T01:47:50;25.85;;;13.45;;
70165;SDS011;57541;47.408;18.822;2022-11-03T01:48:22;26.05;;;13.93;;
70165;SDS011;57541;47.408;18.822;2022-11-03T01:49:08;25.90;;;13.93;;
70165;SDS011;57541;47.408;18.822;2022-11-03T01:50:17;32.22;;;14.55;;
70165;SDS011;57541;47.408;18.822;2022-11-03T01:50:50;23.30;;;13.38;;
70165;SDS011;57541;47.408;18.822;2022-11-03T01:51:22;25.55;;;13.50;;
70165;SDS011;57541;47.408;18.822;2022-11-03T01:51:57;23.88;;;14.40;;
70165;SDS011;57541;47.408;18.822;2022-11-03T01:52:46;26.88;;;14.93;;
70165;SDS011;57541;47.408;18.822;2022-11-03T01:53:20;24.67;;;13.70;;
70165;SDS011;57541;47.408;18.822;2022-11-03T01:53:52;25.42;;;13.90;;
70165;SDS011;57541;47.408;18.822;2022-11-03T01:54:27;26.13;;;14.50;;
70165;SDS011;57541;47.408;18.822;2022-11-03T01:55:02;28.13;;;14.00;;
70165;SDS011;57541;47.408;18.822;2022-11-03T01:55:37;27.38;;;14.95;;
70165;SDS011;57541;47.408;18.822;2022-11-03T01:56:12;27.67;;;14.73;;
70165;SDS011;57541;47.408;18.822;2022-11-03T01:56:45;26.77;;;14.60;;
70165;SDS011;57541;47.408;18.822;2022-11-03T01:57:19;27.95;;;14.40;;
70165;SDS011;57541;47.408;18.822;2022-11-03T01:57:59;27.77;;;14.88;;
70165;SDS011;57541;47.408;18.822;2022-11-03T01:58:36;29.30;;;14.48;;
70165;SDS011;57541;47.408;18.822;2022-11-03T01:59:11;31.90;;;15.18;;
70165;SDS011;57541;47.408;18.822;2022-11-03T01:59:45;29.60;;;15.32;;
70165;SDS011;57541;47.408;18.822;2022-11-03T02:01:10;26.27;;;14.13;;
70165;SDS011;57541;47.408;18.822;2022-11-03T02:01:43;27.90;;;14.18;;
70165;SDS011;57541;47.408;18.822;2022-11-03T02:02:16;25.83;;;14.65;;
70165;SDS011;57541;47.408;18.822;2022-11-03T02:02:47;30.17;;;14.57;;
70165;SDS011;57541;47.408;18.822;2022-11-03T02:03:20;27.20;;;14.00;;
70165;SDS011;57541;47.408;18.822;2022-11-03T02:03:55;27.70;;;15.55;;
70165;SDS011;57541;47.408;18.822;2022-11-03T02:04:31;29.30;;;14.63;;
70165;SDS011;57541;47.408;18.822;2022-11-03T02:05:04;27.70;;;14.35;;
70165;SDS011;57541;47.408;18.822;2022-11-03T02:05:37;24.65;;;14.00;;
70165;SDS011;57541;47.408;18.822;2022-11-03T02:06:09;27.15;;;14.15;;
70165;SDS011;57541;47.408;18.822;2022-11-03T02:06:42;27.15;;;14.73;;
70165;SDS011;57541;47.408;18.822;2022-11-03T02:07:19;27.20;;;15.05;;
70165;SDS011;57541;47.408;18.822;2022-11-03T02:08:04;27.98;;;13.70;;
70165;SDS011;57541;47.408;18.822;2022-11-03T02:08:45;25.13;;;13.63;;
70165;SDS011;57541;47.408;18.822;2022-11-03T02:09:21;26.13;;;13.25;;
70165;SDS011;57541;47.408;18.822;2022-11-03T02:09:52;25.75;;;14.45;;
70165;SDS011;57541;47.408;18.822;2022-11-03T02:10:24;24.60;;;13.20;;
70165;SDS011;57541;47.408;18.822;2022-11-03T02:10:55;23.35;;;13.57;;
70165;SDS011;57541;47.408;18.822;2022-11-03T02:11:28;26.65;;;14.15;;
70165;SDS011;57541;47.408;18.822;2022-11-03T02:12:20;25.67;;;14.20;;
70165;SDS011;57541;47.408;18.822;2022-11-03T02:12:52;23.80;;;13.50;;
70165;SDS011;57541;47.408;18.822;2022-11-03T02:13:25;24.15;;;13.57;;
70165;SDS011;57541;47.408;18.822;2022-11-03T02:13:57;25.55;;;14.07;;
70165;SDS011;57541;47.408;18.822;2022-11-03T02:14:29;25.08;;;14.55;;
70165;SDS011;57541;47.408;18.822;2022-11-03T02:15:03;28.67;;;15.10;;
70165;SDS011;57541;47.408;18.822;2022-11-03T02:15:37;29.33;;;14.50;;
70165;SDS011;57541;47.408;18.822;2022-11-03T02:16:10;26.52;;;14.05;;
70165;SDS011;57541;47.408;18.822;2022-11-03T02:16:42;29.50;;;14.57;;
70165;SDS011;57541;47.408;18.822;2022-11-03T02:17:19;25.02;;;13.60;;
70165;SDS011;57541;47.408;18.822;2022-11-03T02:17:53;24.92;;;13.63;;
70165;SDS011;57541;47.408;18.822;2022-11-03T02:18:27;24.05;;;13.55;;
70165;SDS011;57541;47.408;18.822;2022-11-03T02:19:03;26.02;;;15.25;;
70165;SDS011;57541;47.408;18.822;2022-11-03T02:20:26;25.27;;;14.30;;
70165;SDS011;57541;47.408;18.822;2022-11-03T02:21:33;24.83;;;14.75;;
70165;SDS011;57541;47.408;18.822;2022-11-03T02:22:53;26.90;;;13.85;;
70165;SDS011;57541;47.408;18.822;2022-11-03T02:23:31;25.92;;;14.98;;
70165;SDS011;57541;47.408;18.822;2022-11-03T02:26:05;29.23;;;14.77;;
70165;SDS011;57541;47.408;18.822;2022-11-03T02:26:37;29.25;;;14.75;;
70165;SDS011;57541;47.408;18.822;2022-11-03T02:27:11;26.98;;;14.60;;
70165;SDS011;57541;47.408;18.822;2022-11-03T02:27:42;32.35;;;16.08;;
70165;SDS011;57541;47.408;18.822;2022-11-03T02:28:21;30.25;;;16.10;;
70165;SDS011;57541;47.408;18.822;2022-11-03T02:28:55;31.77;;;16.08;;
70165;SDS011;57541;47.408;18.822;2022-11-03T02:29:27;28.63;;;15.18;;
70165;SDS011;57541;47.408;18.822;2022-11-03T02:29:59;30.98;;;16.35;;
70165;SDS011;57541;47.408;18.822;2022-11-03T02:30:33;29.05;;;16.08;;
70165;SDS011;57541;47.408;18.822;2022-11-03T02:31:54;33.97;;;16.40;;
70165;SDS011;57541;47.408;18.822;2022-11-03T02:34:28;26.70;;;14.93;;
70165;SDS011;57541;47.408;18.822;2022-11-03T02:35:11;28.73;;;14.98;;
70165;SDS011;57541;47.408;18.822;2022-11-03T02:35:53;26.70;;;14.98;;
70165;SDS011;57541;47.408;18.822;2022-11-03T02:37:24;28.10;;;14.95;;
70165;SDS011;57541;47.408;18.822;2022-11-03T02:37:59;29.42;;;14.77;;
70165;SDS011;57541;47.408;18.822;2022-11-03T02:38:33;28.08;;;14.70;;
70165;SDS011;57541;47.408;18.822;2022-11-03T02:39:17;26.77;;;15.25;;
70165;SDS011;57541;47.408;18.822;2022-11-03T02:39:55;28.38;;;15.30;;
70165;SDS011;57541;47.408;18.822;2022-11-03T02:40:33;30.30;;;16.08;;
70165;SDS011;57541;47.408;18.822;2022-11-03T02:41:08;29.42;;;15.00;;
70165;SDS011;57541;47.408;18.822;2022-11-03T02:41:42;28.38;;;16.00;;
70165;SDS011;57541;47.408;18.822;2022-11-03T02:42:15;27.77;;;15.68;;
70165;SDS011;57541;47.408;18.822;2022-11-03T02:42:49;30.27;;;15.90;;
70165;SDS011;57541;47.408;18.822;2022-11-03T02:43:22;30.15;;;15.77;;
70165;SDS011;57541;47.408;18.822;2022-11-03T02:43:56;29.58;;;16.02;;
70165;SDS011;57541;47.408;18.822;2022-11-03T02:44:28;26.58;;;15.30;;
70165;SDS011;57541;47.408;18.822;2022-11-03T02:45:03;31.42;;;16.17;;
70165;SDS011;57541;47.408;18.822;2022-11-03T02:45:37;28.55;;;15.85;;
70165;SDS011;57541;47.408;18.822;2022-11-03T02:46:10;30.75;;;15.80;;
70165;SDS011;57541;47.408;18.822;2022-11-03T02:46:44;28.75;;;15.63;;
70165;SDS011;57541;47.408;18.822;2022-11-03T02:47:18;28.20;;;15.48;;
70165;SDS011;57541;47.408;18.822;2022-11-03T02:47:52;29.55;;;15.52;;
70165;SDS011;57541;47.408;18.822;2022-11-03T02:48:26;28.85;;;15.93;;
70165;SDS011;57541;47.408;18.822;2022-11-03T02:48:58;28.27;;;14.88;;
70165;SDS011;57541;47.408;18.822;2022-11-03T02:49:29;28.30;;;15.18;;
70165;SDS011;57541;47.408;18.822;2022-11-03T02:50:03;27.42;;;15.15;;
70165;SDS011;57541;47.408;18.822;2022-11-03T02:50:38;25.98;;;14.18;;
70165;SDS011;57541;47.408;18.822;2022-11-03T02:51:10;26.38;;;14.93;;
70165;SDS011;57541;47.408;18.822;2022-11-03T02:51:41;27.13;;;15.50;;
70165;SDS011;57541;47.408;18.822;2022-11-03T02:53:10;26.80;;;14.00;;
70165;SDS011;57541;47.408;18.822;2022-11-03T02:53:54;26.77;;;14.02;;
70165;SDS011;57541;47.408;18.822;2022-11-03T02:54:47;28.60;;;14.40;;
70165;SDS011;57541;47.408;18.822;2022-11-03T02:55:36;28.20;;;14.80;;
70165;SDS011;57541;47.408;18.822;2022-11-03T02:56:12;27.60;;;15.20;;
70165;SDS011;57541;47.408;18.822;2022-11-03T02:56:50;26.75;;;14.40;;
70165;SDS011;57541;47.408;18.822;2022-11-03T02:57:26;24.63;;;14.15;;
70165;SDS011;57541;47.408;18.822;2022-11-03T02:58:04;29.83;;;15.45;;
70165;SDS011;57541;47.408;18.822;2022-11-03T02:58:56;26.85;;;14.80;;
70165;SDS011;57541;47.408;18.822;2022-11-03T02:59:37;28.90;;;15.02;;
70165;SDS011;57541;47.408;18.822;2022-11-03T03:00:15;28.83;;;14.73;;
70165;SDS011;57541;47.408;18.822;2022-11-03T03:00:49;25.85;;;14.93;;
70165;SDS011;57541;47.408;18.822;2022-11-03T03:01:32;26.65;;;14.18;;
70165;SDS011;57541;47.408;18.822;2022-11-03T03:02:19;26.63;;;14.57;;
70165;SDS011;57541;47.408;18.822;2022-11-03T03:03:15;28.15;;;14.18;;
70165;SDS011;57541;47.408;18.822;2022-11-03T03:03:54;26.55;;;14.63;;
70165;SDS011;57541;47.408;18.822;2022-11-03T03:04:38;28.20;;;14.40;;
70165;SDS011;57541;47.408;18.822;2022-11-03T03:05:13;27.10;;;13.40;;
70165;SDS011;57541;47.408;18.822;2022-11-03T03:05:49;26.45;;;14.68;;
70165;SDS011;57541;47.408;18.822;2022-11-03T03:06:30;27.65;;;14.63;;
70165;SDS011;57541;47.408;18.822;2022-11-03T03:07:07;28.52;;;14.85;;
70165;SDS011;57541;47.408;18.822;2022-11-03T03:07:46;27.20;;;14.25;;
70165;SDS011;57541;47.408;18.822;2022-11-03T03:08:20;27.75;;;15.05;;
70165;SDS011;57541;47.408;18.822;2022-11-03T03:08:55;27.65;;;15.40;;
70165;SDS011;57541;47.408;18.822;2022-11-03T03:09:32;27.50;;;14.65;;
70165;SDS011;57541;47.408;18.822;2022-11-03T03:10:11;28.25;;;15.48;;
70165;SDS011;57541;47.408;18.822;2022-11-03T03:10:48;30.63;;;15.15;;
70165;SDS011;57541;47.408;18.822;2022-11-03T03:11:21;29.88;;;15.23;;
70165;SDS011;57541;47.408;18.822;2022-11-03T03:12:09;28.98;;;14.52;;
70165;SDS011;57541;47.408;18.822;2022-11-03T03:12:46;31.45;;;17.00;;
70165;SDS011;57541;47.408;18.822;2022-11-03T03:13:20;29.70;;;15.52;;
70165;SDS011;57541;47.408;18.822;2022-11-03T03:13:53;27.95;;;15.50;;
70165;SDS011;57541;47.408;18.822;2022-11-03T03:14:29;26.65;;;14.40;;
70165;SDS011;57541;47.408;18.822;2022-11-03T03:15:04;28.88;;;15.18;;
70165;SDS011;57541;47.408;18.822;2022-11-03T03:16:40;27.77;;;15.32;;
70165;SDS011;57541;47.408;18.822;2022-11-03T03:17:24;30.42;;;15.80;;
70165;SDS011;57541;47.408;18.822;2022-11-03T03:19:26;27.08;;;14.15;;
70165;SDS011;57541;47.408;18.822;2022-11-03T03:20:16;25.33;;;13.07;;
70165;SDS011;57541;47.408;18.822;2022-11-03T03:20:56;24.77;;;13.77;;
70165;SDS011;57541;47.408;18.822;2022-11-03T03:21:36;28.73;;;14.60;;
70165;SDS011;57541;47.408;18.822;2022-11-03T03:22:23;27.48;;;13.65;;
70165;SDS011;57541;47.408;18.822;2022-11-03T03:23:18;27.13;;;14.10;;
70165;SDS011;57541;47.408;18.822;2022-11-03T03:23:56;26.90;;;13.93;;
70165;SDS011;57541;47.408;18.822;2022-11-03T03:26:34;26.73;;;14.60;;
70165;SDS011;57541;47.408;18.822;2022-11-03T03:27:11;28.13;;;13.98;;
70165;SDS011;57541;47.408;18.822;2022-11-03T03:27:48;26.33;;;15.13;;
70165;SDS011;57541;47.408;18.822;2022-11-03T03:28:34;31.27;;;16.02;;
70165;SDS011;57541;47.408;18.822;2022-11-03T03:29:35;25.10;;;14.20;;
70165;SDS011;57541;47.408;18.822;2022-11-03T03:30:16;27.92;;;14.27;;
70165;SDS011;57541;47.408;18.822;2022-11-03T03:30:49;24.50;;;13.43;;
70165;SDS011;57541;47.408;18.822;2022-11-03T03:31:25;25.52;;;13.98;;
70165;SDS011;57541;47.408;18.822;2022-11-03T03:32:00;26.92;;;13.95;;
70165;SDS011;57541;47.408;18.822;2022-11-03T03:32:37;26.27;;;14.50;;
70165;SDS011;57541;47.408;18.822;2022-11-03T03:33:10;27.23;;;14.48;;
70165;SDS011;57541;47.408;18.822;2022-11-03T03:33:44;28.60;;;14.13;;
70165;SDS011;57541;47.408;18.822;2022-11-03T03:34:18;27.48;;;14.25;;
70165;SDS011;57541;47.408;18.822;2022-11-03T03:35:07;26.50;;;13.88;;
70165;SDS011;57541;47.408;18.822;2022-11-03T03:35:41;31.77;;;15.07;;
70165;SDS011;57541;47.408;18.822;2022-11-03T03:36:18;27.52;;;15.10;;
70165;SDS011;57541;47.408;18.822;2022-11-03T03:36:52;26.75;;;15.20;;